createdAt,value
2022-08-17T00:00:08.090Z,8.30
2022-08-17T00:12:41.535Z,8.20
2022-08-17T00:24:08.981Z,8.20
2022-08-17T00:36:09.481Z,8.50
2022-08-17T00:48:11.504Z,8.10
2022-08-17T01:00:10.320Z,8.80
2022-08-17T01:12:10.790Z,9.00
2022-08-17T01:24:11.255Z,8.60
2022-08-17T01:36:11.665Z,8.50
2022-08-17T01:48:12.177Z,8.80
2022-08-17T02:00:12.653Z,8.90
2022-08-17T02:12:39.136Z,8.80
2022-08-17T02:24:13.518Z,9.40
2022-08-17T02:36:13.981Z,9.10
2022-08-17T02:48:14.460Z,9.20
2022-08-17T03:00:14.898Z,9.50
2022-08-17T03:12:15.401Z,9.70
2022-08-17T03:24:15.778Z,9.50
2022-08-17T03:36:16.264Z,9.60
2022-08-17T03:48:16.704Z,9.90
2022-08-17T04:00:17.176Z,9.30
2022-08-17T04:12:17.678Z,9.50
2022-08-17T04:24:18.091Z,9.70
2022-08-17T04:36:18.600Z,8.70
2022-08-17T04:48:18.976Z,9.10
2022-08-17T05:00:19.433Z,9.00
2022-08-17T05:12:19.902Z,9.00
2022-08-17T05:24:39.092Z,9.10
2022-08-17T05:36:43.723Z,9.00
2022-08-17T05:48:21.349Z,10.10
2022-08-17T06:00:21.715Z,9.60
2022-08-17T06:12:22.160Z,9.00
2022-08-17T06:24:22.601Z,8.50
2022-08-17T06:36:23.096Z,7.50
2022-08-17T06:48:23.542Z,7.60
2022-08-17T07:00:23.979Z,7.60
2022-08-17T07:12:24.432Z,6.70
2022-08-17T07:24:26.377Z,6.30
2022-08-17T07:36:29.636Z,5.80
2022-08-17T07:48:25.815Z,5.30
2022-08-17T08:00:32.135Z,4.40
2022-08-17T08:12:28.939Z,3.90
2022-08-17T08:24:30.116Z,4.00
2022-08-17T08:37:15.768Z,4.30
2022-08-17T08:48:53.955Z,4.30
2022-08-17T09:00:28.581Z,4.00
2022-08-17T09:12:29.004Z,3.90
2022-08-17T09:24:29.478Z,3.70
2022-08-17T09:36:29.956Z,3.50
2022-08-17T09:48:30.338Z,3.30
2022-08-17T10:00:30.850Z,3.10
2022-08-17T10:12:31.264Z,2.70
2022-08-17T10:24:31.732Z,2.90
2022-08-17T10:36:32.202Z,2.30
2022-08-17T10:48:32.671Z,2.40
2022-08-17T11:00:33.156Z,2.20
2022-08-17T11:12:33.572Z,2.50
2022-08-17T11:24:34.031Z,2.70
2022-08-17T11:36:34.518Z,2.30
2022-08-17T11:48:35.490Z,2.50
2022-08-17T12:00:35.388Z,2.70
2022-08-17T12:12:35.872Z,2.70
2022-08-17T12:24:36.345Z,2.80
2022-08-17T12:36:36.736Z,2.50
2022-08-17T12:48:37.248Z,2.40
2022-08-17T13:00:37.725Z,2.60
2022-08-17T13:12:38.160Z,2.40
2022-08-17T13:24:38.762Z,2.60
2022-08-17T13:36:39.108Z,2.50
2022-08-17T13:48:39.494Z,2.50
2022-08-17T14:00:40.013Z,2.60
2022-08-17T14:12:40.454Z,2.50
2022-08-17T14:24:44.634Z,2.50
2022-08-17T14:36:41.325Z,2.40
2022-08-17T14:48:41.816Z,2.20
2022-08-17T15:00:42.224Z,2.00
2022-08-17T15:12:42.738Z,2.30
2022-08-17T15:24:43.165Z,2.20
2022-08-17T15:36:49.115Z,2.30
2022-08-17T15:48:44.102Z,2.50
2022-08-17T16:00:49.918Z,1.90
2022-08-17T16:12:44.996Z,2.30
2022-08-17T16:24:47.843Z,2.20
2022-08-17T16:36:55.741Z,2.40
2022-08-17T16:48:46.384Z,2.70
2022-08-17T17:00:46.863Z,2.90
2022-08-17T17:13:00.898Z,3.10
2022-08-17T17:24:50.188Z,3.20
2022-08-17T17:36:48.187Z,3.20
2022-08-17T17:48:48.656Z,3.60
2022-08-17T18:00:49.132Z,3.30
2022-08-17T18:12:49.558Z,3.30
2022-08-17T18:24:50.047Z,3.40
2022-08-17T18:36:50.537Z,3.30
2022-08-17T18:48:50.974Z,3.80
2022-08-17T19:00:51.416Z,4.10
2022-08-17T19:12:51.969Z,4.20
2022-08-17T19:24:56.115Z,5.20
2022-08-17T19:36:52.784Z,4.60
2022-08-17T19:48:53.223Z,4.50
2022-08-17T20:00:53.683Z,5.30
2022-08-17T20:12:54.142Z,4.40
2022-08-17T20:24:54.615Z,4.80
2022-08-17T20:36:55.053Z,5.60
2022-08-17T20:48:55.501Z,5.30
2022-08-17T21:00:55.964Z,4.90
2022-08-17T21:12:56.453Z,5.10
2022-08-17T21:24:56.882Z,5.50
2022-08-17T21:36:57.291Z,5.20
2022-08-17T21:48:57.792Z,5.40
2022-08-17T22:00:58.300Z,6.20
2022-08-17T22:12:58.717Z,6.00
2022-08-17T22:24:59.167Z,5.80
2022-08-17T22:37:03.684Z,6.60
2022-08-17T22:49:00.102Z,6.30
2022-08-17T23:01:00.522Z,6.40
2022-08-17T23:13:00.974Z,6.70
2022-08-17T23:25:01.406Z,7.10
2022-08-17T23:37:01.883Z,7.00
2022-08-17T23:49:02.341Z,7.20
